createdAt,value
2022-10-07T00:00:56.488Z,7.30
2022-10-07T00:03:25.983Z,10.15
2022-10-07T00:06:03.404Z,6.80
2022-10-07T00:08:31.251Z,6.55
2022-10-07T00:10:58.923Z,7.47
2022-10-07T00:13:26.419Z,12.57
2022-10-07T00:15:53.842Z,5.82
2022-10-07T00:18:21.432Z,7.35
2022-10-07T00:20:48.869Z,11.10
2022-10-07T00:23:16.316Z,9.23
2022-10-07T00:25:43.720Z,8.85
2022-10-07T00:28:11.581Z,10.20
2022-10-07T00:30:39.104Z,7.28
2022-10-07T00:33:06.610Z,8.98
2022-10-07T00:35:35.840Z,8.52
2022-10-07T00:38:03.136Z,7.07
2022-10-07T00:40:30.338Z,14.38
2022-10-07T00:42:57.528Z,9.32
2022-10-07T00:45:24.795Z,7.75
2022-10-07T00:47:52.111Z,10.57
2022-10-07T00:50:25.557Z,8.23
2022-10-07T00:52:54.463Z,8.77
2022-10-07T00:55:23.734Z,8.07
2022-10-07T00:57:51.742Z,7.57
2022-10-07T01:00:21.841Z,8.77
2022-10-07T01:02:49.207Z,8.40
2022-10-07T01:05:17.803Z,9.18
2022-10-07T01:07:47.597Z,11.02
2022-10-07T01:10:18.815Z,11.15
2022-10-07T01:12:52.184Z,14.00
2022-10-07T01:15:28.588Z,7.93
2022-10-07T01:18:05.121Z,8.57
2022-10-07T01:20:35.604Z,7.57
2022-10-07T01:23:21.359Z,12.90
2022-10-07T01:26:04.331Z,10.40
2022-10-07T01:28:44.330Z,10.82
2022-10-07T01:31:14.130Z,11.32
2022-10-07T01:33:42.435Z,9.00
2022-10-07T01:36:11.568Z,15.07
2022-10-07T01:38:41.882Z,9.00
2022-10-07T01:41:12.011Z,12.15
2022-10-07T01:43:40.118Z,8.05
2022-10-07T01:46:09.924Z,9.75
2022-10-07T01:48:37.302Z,7.47
2022-10-07T01:51:06.603Z,9.93
2022-10-07T01:53:45.804Z,9.00
2022-10-07T01:56:21.891Z,8.27
2022-10-07T01:59:07.783Z,8.95
2022-10-07T02:01:53.897Z,6.40
2022-10-07T02:04:31.228Z,7.13
2022-10-07T02:07:01.303Z,6.55
2022-10-07T02:09:34.951Z,6.53
2022-10-07T02:12:08.440Z,6.68
2022-10-07T02:14:41.386Z,9.98
2022-10-07T02:17:14.228Z,8.35
2022-10-07T02:19:45.111Z,8.05
2022-10-07T02:22:14.182Z,10.02
2022-10-07T02:24:42.136Z,6.90
2022-10-07T02:27:14.390Z,5.88
2022-10-07T02:29:43.359Z,8.32
2022-10-07T02:32:12.475Z,5.47
2022-10-07T02:34:41.294Z,13.02
2022-10-07T02:37:14.318Z,6.13
2022-10-07T02:39:43.674Z,8.20
2022-10-07T02:42:14.826Z,7.50
2022-10-07T02:44:48.303Z,8.95
2022-10-07T02:47:29.097Z,14.20
2022-10-07T02:50:00.392Z,5.57
2022-10-07T02:52:31.297Z,8.25
2022-10-07T02:55:00.981Z,6.47
2022-10-07T02:57:31.403Z,5.05
2022-10-07T03:00:01.051Z,5.72
2022-10-07T03:02:31.151Z,6.65
2022-10-07T03:04:58.979Z,7.00
2022-10-07T03:07:26.511Z,7.65
2022-10-07T03:09:54.014Z,7.55
2022-10-07T03:12:21.216Z,6.72
2022-10-07T03:14:50.048Z,8.68
2022-10-07T03:17:20.047Z,5.03
2022-10-07T03:19:47.288Z,10.55
2022-10-07T03:22:14.478Z,7.53
2022-10-07T03:24:42.686Z,6.07
2022-10-07T03:27:10.118Z,5.18
2022-10-07T03:29:37.387Z,29.15
2022-10-07T03:32:04.872Z,7.93
2022-10-07T03:34:32.254Z,6.72
2022-10-07T03:37:00.138Z,6.47
2022-10-07T03:39:28.179Z,7.43
2022-10-07T03:41:57.106Z,4.53
2022-10-07T03:44:24.436Z,4.35
2022-10-07T03:46:52.613Z,10.90
2022-10-07T03:49:20.341Z,5.85
2022-10-07T03:51:47.718Z,4.30
2022-10-07T03:54:15.087Z,7.97
2022-10-07T03:56:42.273Z,4.35
2022-10-07T03:59:09.663Z,10.15
2022-10-07T04:01:37.369Z,8.00
2022-10-07T04:04:04.633Z,6.07
2022-10-07T04:06:32.163Z,5.63
2022-10-07T04:08:59.391Z,5.93
2022-10-07T04:11:26.717Z,6.18
2022-10-07T04:13:53.924Z,8.13
2022-10-07T04:16:22.098Z,4.28
2022-10-07T04:18:49.495Z,4.18
2022-10-07T04:21:17.020Z,4.07
2022-10-07T04:23:44.310Z,6.05
2022-10-07T04:26:12.617Z,8.55
2022-10-07T04:28:40.186Z,6.95
2022-10-07T04:31:08.992Z,8.38
2022-10-07T04:33:39.591Z,6.07
2022-10-07T04:36:07.730Z,6.40
2022-10-07T04:38:34.925Z,8.48
2022-10-07T04:41:06.893Z,6.40
2022-10-07T04:43:34.867Z,7.47
2022-10-07T04:46:07.152Z,4.82
2022-10-07T04:48:34.663Z,7.45
2022-10-07T04:51:02.817Z,10.52
2022-10-07T04:53:31.566Z,6.28
2022-10-07T04:56:00.083Z,6.65
2022-10-07T04:58:28.323Z,9.20
2022-10-07T05:00:56.319Z,12.23
2022-10-07T05:03:24.993Z,6.75
2022-10-07T05:05:53.339Z,7.20
2022-10-07T05:08:21.559Z,6.30
2022-10-07T05:10:49.073Z,6.18
2022-10-07T05:13:17.074Z,8.30
2022-10-07T05:15:50.819Z,6.75
2022-10-07T05:18:19.275Z,5.72
2022-10-07T05:20:47.717Z,5.65
2022-10-07T05:23:16.358Z,10.18
2022-10-07T05:25:44.549Z,8.80
2022-10-07T05:28:12.226Z,8.57
2022-10-07T05:30:39.514Z,9.63
2022-10-07T05:33:06.900Z,11.88
2022-10-07T05:35:34.248Z,8.95
2022-10-07T05:38:02.213Z,5.75
2022-10-07T05:40:29.782Z,8.80
2022-10-07T05:42:57.119Z,14.30
2022-10-07T05:45:24.311Z,9.32
2022-10-07T05:47:51.916Z,14.13
2022-10-07T05:50:19.189Z,11.50
2022-10-07T05:52:46.479Z,7.57
2022-10-07T05:55:13.665Z,20.63
2022-10-07T05:57:41.439Z,9.68
2022-10-07T06:00:09.009Z,8.13
2022-10-07T06:02:37.368Z,9.68
2022-10-07T06:05:04.753Z,18.13
2022-10-07T06:07:32.048Z,8.18
2022-10-07T06:10:17.777Z,9.68
2022-10-07T06:13:03.906Z,10.13
2022-10-07T06:15:31.719Z,9.73
2022-10-07T06:17:58.991Z,8.57
2022-10-07T06:20:26.658Z,8.02
2022-10-07T06:22:55.471Z,6.95
2022-10-07T06:25:23.474Z,12.43
2022-10-07T06:27:54.215Z,7.10
2022-10-07T06:30:21.962Z,12.85
2022-10-07T06:32:49.258Z,10.38
2022-10-07T06:35:16.554Z,7.78
2022-10-07T06:37:43.912Z,6.82
2022-10-07T06:40:12.035Z,8.25
2022-10-07T06:42:39.227Z,6.85
2022-10-07T06:45:06.779Z,6.80
2022-10-07T06:47:34.674Z,10.02
2022-10-07T06:50:02.130Z,7.10
2022-10-07T06:52:29.352Z,10.73
2022-10-07T06:54:57.915Z,8.65
2022-10-07T06:57:44.912Z,6.93
2022-10-07T07:00:12.585Z,9.02
2022-10-07T07:02:39.814Z,6.78
2022-10-07T07:05:08.772Z,9.05
2022-10-07T07:07:36.022Z,8.73
2022-10-07T07:10:03.796Z,5.22
2022-10-07T07:12:31.052Z,6.68
2022-10-07T07:15:00.362Z,12.65
2022-10-07T07:17:27.577Z,7.97
2022-10-07T07:19:55.604Z,10.70
2022-10-07T07:22:22.838Z,7.25
2022-10-07T07:24:50.077Z,12.50
2022-10-07T07:27:17.369Z,9.95
2022-10-07T07:29:44.578Z,14.63
2022-10-07T07:32:11.868Z,12.38
2022-10-07T07:34:39.132Z,13.35
2022-10-07T07:37:07.184Z,8.18
2022-10-07T07:39:34.387Z,9.77
2022-10-07T07:42:01.631Z,6.97
2022-10-07T07:44:34.000Z,9.77
2022-10-07T07:47:02.257Z,8.07
2022-10-07T07:49:32.033Z,10.75
2022-10-07T07:51:59.479Z,7.75
2022-10-07T07:54:30.567Z,6.72
2022-10-07T07:56:58.641Z,11.68
2022-10-07T07:59:26.534Z,5.78
2022-10-07T08:01:53.791Z,6.85
2022-10-07T08:04:21.150Z,8.57
2022-10-07T08:06:48.387Z,9.02
2022-10-07T08:09:15.681Z,6.47
2022-10-07T08:11:45.360Z,10.93
2022-10-07T08:14:13.669Z,5.80
2022-10-07T08:16:40.927Z,14.82
2022-10-07T08:19:08.193Z,11.90
2022-10-07T08:21:35.502Z,9.13
2022-10-07T08:24:04.037Z,17.90
2022-10-07T08:26:32.865Z,15.10
2022-10-07T08:29:01.560Z,18.48
2022-10-07T08:31:29.583Z,10.18
2022-10-07T08:33:58.496Z,12.05
2022-10-07T08:36:26.662Z,9.23
2022-10-07T08:38:54.205Z,9.63
2022-10-07T08:41:40.274Z,12.18
2022-10-07T08:44:24.357Z,11.90
2022-10-07T08:47:06.506Z,12.23
2022-10-07T08:49:36.690Z,11.52
2022-10-07T08:52:06.494Z,9.98
2022-10-07T08:54:34.231Z,9.95
2022-10-07T08:57:24.603Z,10.30
2022-10-07T08:59:55.024Z,10.43
2022-10-07T09:02:22.309Z,11.65
2022-10-07T09:04:55.757Z,13.30
2022-10-07T09:07:22.985Z,15.30
2022-10-07T09:09:53.757Z,12.82
2022-10-07T09:12:41.291Z,15.75
2022-10-07T09:15:16.281Z,10.27
2022-10-07T09:17:50.512Z,16.58
2022-10-07T09:20:20.448Z,8.10
2022-10-07T09:22:55.081Z,14.07
2022-10-07T09:25:23.709Z,12.55
2022-10-07T09:27:52.293Z,9.70
2022-10-07T09:30:20.423Z,10.93
2022-10-07T09:32:49.585Z,12.45
2022-10-07T09:35:20.198Z,10.98
2022-10-07T09:37:56.367Z,16.08
2022-10-07T09:40:31.473Z,7.55
2022-10-07T09:42:59.861Z,9.27
2022-10-07T09:45:27.189Z,11.13
2022-10-07T09:47:56.365Z,14.77
2022-10-07T09:50:39.753Z,9.82
2022-10-07T09:53:17.373Z,14.15
2022-10-07T09:55:44.683Z,9.98
2022-10-07T09:58:18.027Z,10.20
2022-10-07T10:00:49.354Z,16.27
2022-10-07T10:03:18.179Z,10.02
2022-10-07T10:05:54.862Z,10.95
2022-10-07T10:08:23.985Z,13.35
2022-10-07T10:10:53.333Z,12.57
2022-10-07T10:13:29.809Z,13.45
2022-10-07T10:15:57.165Z,16.35
2022-10-07T10:18:29.675Z,14.07
2022-10-07T10:20:56.949Z,12.13
2022-10-07T10:23:30.444Z,14.60
2022-10-07T10:26:33.312Z,17.13
2022-10-07T10:29:24.342Z,12.30
2022-10-07T10:32:10.206Z,14.25
2022-10-07T10:34:52.706Z,15.45
2022-10-07T10:37:21.798Z,14.02
2022-10-07T10:40:07.973Z,15.65
2022-10-07T10:42:48.119Z,12.48
2022-10-07T10:45:20.524Z,14.82
2022-10-07T10:48:07.152Z,24.40
2022-10-07T10:50:49.112Z,17.35
2022-10-07T10:53:34.510Z,23.42
2022-10-07T10:56:10.938Z,24.00
2022-10-07T10:58:38.170Z,21.85
2022-10-07T11:01:21.110Z,20.45
2022-10-07T11:03:59.795Z,21.52
2022-10-07T11:06:28.625Z,29.05
2022-10-07T11:08:57.508Z,24.52
2022-10-07T11:11:24.828Z,26.38
2022-10-07T11:13:57.904Z,25.63
2022-10-07T11:16:40.696Z,25.92
2022-10-07T11:19:12.167Z,21.70
2022-10-07T11:21:50.520Z,23.83
2022-10-07T11:24:35.658Z,22.30
2022-10-07T11:27:17.399Z,22.98
2022-10-07T11:29:48.445Z,25.35
2022-10-07T11:32:21.284Z,23.33
2022-10-07T11:34:54.788Z,24.77
2022-10-07T11:37:22.114Z,23.17
2022-10-07T11:39:49.965Z,18.05
2022-10-07T11:42:20.567Z,22.08
2022-10-07T11:44:54.528Z,32.00
2022-10-07T11:47:24.454Z,20.77
2022-10-07T11:49:57.912Z,19.50
2022-10-07T11:52:28.123Z,28.63
2022-10-07T11:55:00.687Z,30.42
2022-10-07T11:57:31.433Z,25.25
2022-10-07T12:00:00.573Z,24.30
2022-10-07T12:02:30.632Z,18.73
2022-10-07T12:05:01.808Z,18.70
2022-10-07T12:07:35.194Z,22.65
2022-10-07T12:10:02.462Z,16.10
2022-10-07T12:12:46.373Z,17.92
2022-10-07T12:15:32.751Z,18.38
2022-10-07T12:18:06.296Z,18.45
2022-10-07T12:20:43.002Z,17.00
2022-10-07T12:23:22.463Z,22.55
2022-10-07T12:25:59.856Z,16.02
2022-10-07T12:28:27.115Z,22.38
2022-10-07T12:30:56.195Z,17.35
2022-10-07T12:33:30.236Z,17.15
2022-10-07T12:35:57.561Z,17.05
2022-10-07T12:38:28.920Z,18.88
2022-10-07T12:41:02.383Z,18.98
2022-10-07T12:43:38.819Z,15.37
2022-10-07T12:46:07.106Z,17.23
2022-10-07T12:48:37.937Z,17.30
2022-10-07T12:51:06.628Z,19.42
2022-10-07T12:53:37.432Z,20.55
2022-10-07T12:56:06.495Z,17.15
2022-10-07T12:58:52.184Z,19.65
2022-10-07T13:01:42.841Z,19.85
2022-10-07T13:04:22.751Z,14.57
2022-10-07T13:06:50.018Z,17.52
2022-10-07T13:09:17.258Z,16.73
2022-10-07T13:11:52.328Z,17.02
2022-10-07T13:14:31.027Z,19.80
2022-10-07T13:17:08.157Z,15.73
2022-10-07T13:19:41.217Z,14.02
2022-10-07T13:22:08.728Z,20.65
2022-10-07T13:24:39.356Z,18.85
2022-10-07T13:27:10.397Z,12.00
2022-10-07T13:29:38.505Z,15.43
2022-10-07T13:32:11.971Z,15.77
2022-10-07T13:34:39.280Z,15.97
2022-10-07T13:37:25.299Z,15.88
2022-10-07T13:39:52.659Z,17.48
2022-10-07T13:42:21.422Z,15.75
2022-10-07T13:44:48.880Z,15.13
2022-10-07T13:47:20.953Z,17.95
2022-10-07T13:49:50.482Z,15.57
2022-10-07T13:52:32.142Z,15.65
2022-10-07T13:54:59.385Z,11.25
2022-10-07T13:57:29.254Z,13.63
2022-10-07T13:59:56.833Z,13.13
2022-10-07T14:02:24.132Z,12.82
2022-10-07T14:04:54.405Z,19.40
2022-10-07T14:07:22.601Z,12.95
2022-10-07T14:10:09.789Z,14.18
2022-10-07T14:12:46.382Z,12.30
2022-10-07T14:15:20.218Z,16.20
2022-10-07T14:17:49.184Z,11.15
2022-10-07T14:20:16.378Z,17.10
2022-10-07T14:22:45.287Z,13.00
2022-10-07T14:25:29.678Z,13.10
2022-10-07T14:28:16.411Z,10.15
2022-10-07T14:31:03.302Z,13.85
2022-10-07T14:33:49.441Z,12.55
2022-10-07T14:36:18.419Z,15.57
2022-10-07T14:38:47.013Z,13.20
2022-10-07T14:41:15.017Z,14.85
2022-10-07T14:43:44.863Z,11.20
2022-10-07T14:46:17.197Z,15.00
2022-10-07T14:48:44.623Z,17.45
2022-10-07T14:51:12.282Z,14.30
2022-10-07T14:53:40.968Z,16.90
2022-10-07T14:56:10.857Z,13.57
2022-10-07T14:58:38.086Z,15.80
2022-10-07T15:01:07.843Z,18.92
2022-10-07T15:03:35.595Z,14.02
2022-10-07T15:06:02.922Z,23.75
2022-10-07T15:08:31.400Z,17.38
2022-10-07T15:10:59.032Z,12.35
2022-10-07T15:13:28.278Z,17.33
2022-10-07T15:15:55.686Z,13.15
2022-10-07T15:18:22.906Z,16.27
2022-10-07T15:20:56.387Z,18.33
2022-10-07T15:23:24.030Z,13.97
2022-10-07T15:25:52.938Z,12.30
2022-10-07T15:28:20.272Z,14.73
2022-10-07T15:30:47.645Z,16.23
2022-10-07T15:33:14.965Z,15.07
2022-10-07T15:35:42.280Z,13.23
2022-10-07T15:38:09.531Z,16.85
2022-10-07T15:40:51.511Z,12.15
2022-10-07T15:43:18.752Z,12.80
2022-10-07T15:45:46.176Z,14.18
2022-10-07T15:48:13.476Z,9.90
2022-10-07T15:50:46.086Z,16.25
2022-10-07T15:53:14.647Z,13.50
2022-10-07T15:55:49.418Z,12.70
2022-10-07T15:58:16.754Z,13.20
2022-10-07T16:00:44.198Z,14.43
2022-10-07T16:03:11.543Z,15.57
2022-10-07T16:05:38.758Z,12.25
2022-10-07T16:08:05.988Z,11.07
2022-10-07T16:10:37.113Z,13.35
2022-10-07T16:13:04.376Z,9.77
2022-10-07T16:15:31.704Z,16.33
2022-10-07T16:17:58.959Z,10.13
2022-10-07T16:20:26.243Z,11.90
2022-10-07T16:22:53.489Z,9.40
2022-10-07T16:25:20.698Z,9.90
2022-10-07T16:28:06.662Z,14.50
2022-10-07T16:30:43.115Z,15.82
2022-10-07T16:33:10.384Z,11.68
2022-10-07T16:35:37.633Z,15.23
2022-10-07T16:38:05.506Z,16.65
2022-10-07T16:40:32.749Z,11.98
2022-10-07T16:43:00.162Z,14.48
2022-10-07T16:45:27.798Z,11.25
2022-10-07T16:47:58.728Z,17.88
2022-10-07T16:50:25.941Z,18.40
2022-10-07T16:52:53.193Z,16.73
2022-10-07T16:55:20.402Z,15.93
2022-10-07T16:57:48.682Z,11.65
2022-10-07T17:00:16.307Z,15.77
2022-10-07T17:02:43.543Z,14.63
2022-10-07T17:05:11.194Z,16.85
2022-10-07T17:07:38.467Z,21.98
2022-10-07T17:10:05.945Z,18.65
2022-10-07T17:12:33.210Z,11.98
2022-10-07T17:15:02.120Z,15.13
2022-10-07T17:17:30.366Z,16.80
2022-10-07T17:19:57.575Z,16.95
2022-10-07T17:22:24.815Z,19.20
2022-10-07T17:24:52.524Z,19.05
2022-10-07T17:27:19.899Z,22.45
2022-10-07T17:29:47.262Z,14.35
2022-10-07T17:32:14.675Z,16.52
2022-10-07T17:34:45.315Z,15.85
2022-10-07T17:37:12.863Z,22.02
2022-10-07T17:39:40.079Z,20.42
2022-10-07T17:42:07.328Z,20.42
2022-10-07T17:44:34.716Z,23.65
2022-10-07T17:47:04.399Z,18.25
2022-10-07T17:49:31.707Z,18.75
2022-10-07T17:51:59.069Z,23.45
2022-10-07T17:54:27.027Z,18.42
2022-10-07T17:56:54.262Z,22.73
2022-10-07T17:59:21.485Z,19.85
2022-10-07T18:01:48.742Z,25.95
2022-10-07T18:04:22.438Z,21.75
2022-10-07T18:06:51.152Z,21.35
2022-10-07T18:09:19.451Z,22.92
2022-10-07T18:12:05.567Z,26.23
2022-10-07T18:14:54.003Z,26.15
2022-10-07T18:17:22.139Z,22.83
2022-10-07T18:19:49.364Z,21.55
2022-10-07T18:22:16.655Z,25.42
2022-10-07T18:24:44.012Z,27.00
2022-10-07T18:27:11.197Z,22.48
2022-10-07T18:29:38.447Z,28.52
2022-10-07T18:32:09.191Z,30.52
2022-10-07T18:34:36.601Z,38.88
2022-10-07T18:37:03.855Z,27.80
2022-10-07T18:39:31.098Z,32.67
2022-10-07T18:41:58.938Z,28.55
2022-10-07T18:44:26.755Z,30.70
2022-10-07T18:46:54.258Z,33.30
2022-10-07T18:49:21.495Z,24.92
2022-10-07T18:51:51.007Z,28.33
2022-10-07T18:54:19.090Z,32.45
2022-10-07T18:56:49.959Z,32.85
2022-10-07T18:59:18.100Z,28.17
2022-10-07T19:01:50.074Z,25.67
2022-10-07T19:04:18.065Z,26.17
2022-10-07T19:06:46.091Z,29.73
2022-10-07T19:09:20.589Z,27.75
2022-10-07T19:11:48.252Z,30.65
2022-10-07T19:14:15.598Z,25.55
2022-10-07T19:16:44.331Z,27.73
2022-10-07T19:19:17.217Z,27.77
2022-10-07T19:21:46.290Z,29.50
2022-10-07T19:24:13.919Z,30.88
2022-10-07T19:26:42.816Z,26.40
2022-10-07T19:29:10.917Z,31.00
2022-10-07T19:31:42.722Z,23.88
2022-10-07T19:34:11.612Z,26.90
2022-10-07T19:36:42.350Z,28.02
2022-10-07T19:39:10.731Z,33.92
2022-10-07T19:41:38.517Z,32.67
2022-10-07T19:44:06.041Z,30.80
2022-10-07T19:46:33.818Z,35.90
2022-10-07T19:49:01.736Z,30.27
2022-10-07T19:51:30.338Z,33.05
2022-10-07T19:53:58.168Z,35.22
2022-10-07T19:56:28.446Z,30.25
2022-10-07T19:58:56.918Z,33.58
2022-10-07T20:01:25.542Z,32.42
2022-10-07T20:03:57.254Z,31.08
2022-10-07T20:06:25.389Z,29.77
2022-10-07T20:08:53.119Z,27.27
2022-10-07T20:11:20.332Z,35.55
2022-10-07T20:13:47.656Z,32.55
2022-10-07T20:16:16.889Z,31.65
2022-10-07T20:18:44.190Z,35.55
2022-10-07T20:21:15.905Z,29.02
2022-10-07T20:23:44.709Z,39.15
2022-10-07T20:26:16.300Z,33.38
2022-10-07T20:28:43.565Z,32.65
2022-10-07T20:31:12.036Z,33.65
2022-10-07T20:33:46.822Z,34.00
2022-10-07T20:36:15.368Z,32.45
2022-10-07T20:39:09.248Z,29.98
2022-10-07T20:42:06.035Z,30.73
2022-10-07T20:44:33.295Z,29.20
2022-10-07T20:47:00.718Z,31.40
2022-10-07T20:49:30.065Z,28.92
2022-10-07T20:52:02.210Z,25.70
2022-10-07T20:54:29.977Z,30.25
2022-10-07T20:56:57.949Z,28.63
2022-10-07T20:59:26.049Z,25.05
2022-10-07T21:01:53.919Z,32.25
2022-10-07T21:04:21.399Z,29.50
2022-10-07T21:06:52.395Z,28.80
2022-10-07T21:09:20.103Z,32.05
2022-10-07T21:11:48.373Z,33.22
2022-10-07T21:14:17.453Z,32.15
2022-10-07T21:16:45.090Z,31.83
2022-10-07T21:19:12.355Z,30.38
2022-10-07T21:21:40.057Z,39.72
2022-10-07T21:24:07.556Z,32.30
2022-10-07T21:26:35.578Z,31.63
2022-10-07T21:29:04.190Z,32.83
2022-10-07T21:31:31.561Z,30.95
2022-10-07T21:34:01.665Z,29.80
2022-10-07T21:36:28.958Z,25.30
2022-10-07T21:38:58.287Z,27.02
2022-10-07T21:41:26.726Z,28.58
2022-10-07T21:43:55.216Z,27.02
2022-10-07T21:46:23.514Z,27.05
2022-10-07T21:48:52.139Z,25.75
2022-10-07T21:51:19.366Z,29.58
2022-10-07T21:53:50.932Z,29.10
2022-10-07T21:56:18.320Z,31.00
2022-10-07T21:58:47.026Z,34.20
2022-10-07T22:01:16.191Z,30.05
2022-10-07T22:03:44.177Z,31.95
2022-10-07T22:06:12.907Z,31.58
2022-10-07T22:08:40.698Z,34.80
2022-10-07T22:11:09.460Z,35.45
2022-10-07T22:13:38.070Z,29.67
2022-10-07T22:16:08.446Z,28.02
2022-10-07T22:18:36.644Z,26.50
2022-10-07T22:21:14.330Z,28.75
2022-10-07T22:23:42.089Z,25.98
2022-10-07T22:26:12.480Z,27.67
2022-10-07T22:28:40.702Z,27.92
2022-10-07T22:31:09.166Z,29.35
2022-10-07T22:33:37.477Z,22.90
2022-10-07T22:36:05.606Z,29.27
2022-10-07T22:38:33.005Z,27.50
2022-10-07T22:41:07.886Z,34.53
2022-10-07T22:43:38.774Z,28.70
2022-10-07T22:46:06.399Z,25.83
2022-10-07T22:48:34.286Z,31.00
2022-10-07T22:51:06.443Z,30.83
2022-10-07T22:53:34.991Z,26.60
2022-10-07T22:56:06.405Z,24.08
2022-10-07T22:58:35.594Z,26.63
2022-10-07T23:01:10.347Z,25.50
2022-10-07T23:03:39.676Z,25.92
2022-10-07T23:06:07.700Z,25.92
2022-10-07T23:08:35.365Z,21.67
2022-10-07T23:11:03.530Z,27.60
2022-10-07T23:13:32.898Z,27.83
2022-10-07T23:16:01.295Z,30.08
2022-10-07T23:18:29.178Z,21.90
2022-10-07T23:21:00.193Z,28.23
2022-10-07T23:23:27.958Z,25.88
2022-10-07T23:25:55.305Z,26.73
2022-10-07T23:28:23.794Z,26.65
2022-10-07T23:30:51.123Z,22.65
2022-10-07T23:33:18.388Z,24.42
2022-10-07T23:35:45.634Z,23.65
2022-10-07T23:38:12.860Z,25.10
2022-10-07T23:40:40.887Z,28.38
2022-10-07T23:43:11.241Z,25.10
2022-10-07T23:45:38.556Z,26.85
2022-10-07T23:48:05.785Z,25.17
2022-10-07T23:50:34.329Z,33.15
2022-10-07T23:53:01.557Z,25.77
2022-10-07T23:55:28.873Z,30.42
2022-10-07T23:57:56.116Z,32.70
